createdAt,value
2022-11-02T00:03:07.255Z,13
2022-11-02T00:08:19.960Z,13
2022-11-02T00:13:31.953Z,13
2022-11-02T00:18:43.726Z,13
2022-11-02T00:23:55.692Z,13
2022-11-02T00:29:07.615Z,13
2022-11-02T00:34:19.361Z,13
2022-11-02T00:39:31.372Z,13
2022-11-02T00:44:43.334Z,13
2022-11-02T00:49:55.260Z,13
2022-11-02T00:55:06.931Z,13
2022-11-02T01:00:19.093Z,13
2022-11-02T01:05:31.040Z,13
2022-11-02T01:10:48.820Z,13
2022-11-02T01:16:00.885Z,13
2022-11-02T01:21:12.582Z,12
2022-11-02T01:26:24.489Z,12
2022-11-02T01:31:36.773Z,12
2022-11-02T01:36:48.620Z,12
2022-11-02T01:42:00.562Z,12
2022-11-02T01:47:12.364Z,12
2022-11-02T01:52:23.930Z,12
2022-11-02T01:57:35.721Z,12
2022-11-02T02:02:48.002Z,12
2022-11-02T02:07:59.841Z,12
2022-11-02T02:13:11.770Z,12
2022-11-02T02:18:27.013Z,12
2022-11-02T02:23:38.070Z,12
2022-11-02T02:28:49.890Z,12
2022-11-02T02:34:01.821Z,12
2022-11-02T02:39:13.633Z,12
2022-11-02T02:44:25.409Z,12
2022-11-02T02:49:37.350Z,12
2022-11-02T02:54:49.268Z,12
2022-11-02T03:00:01.168Z,11
2022-11-02T03:05:13.282Z,11
2022-11-02T03:10:25.128Z,11
2022-11-02T03:15:37.110Z,12
2022-11-02T03:20:49.185Z,12
2022-11-02T03:26:01.268Z,11
2022-11-02T03:31:13.199Z,11
2022-11-02T03:36:25.023Z,11
2022-11-02T03:41:36.860Z,11
2022-11-02T03:46:48.868Z,11
2022-11-02T03:52:00.762Z,11
2022-11-02T03:57:12.449Z,11
2022-11-02T04:02:24.846Z,11
2022-11-02T04:07:36.962Z,11
2022-11-02T04:12:48.709Z,11
2022-11-02T04:18:00.904Z,11
2022-11-02T04:23:13.192Z,11
2022-11-02T04:28:25.018Z,11
2022-11-02T04:33:36.928Z,11
2022-11-02T04:38:49.082Z,11
2022-11-02T04:44:00.880Z,11
2022-11-02T04:49:12.878Z,10
2022-11-02T04:54:24.861Z,11
2022-11-02T04:59:36.838Z,11
2022-11-02T05:04:48.899Z,11
2022-11-02T05:10:00.911Z,11
2022-11-02T05:15:12.789Z,11
2022-11-02T05:20:24.777Z,11
2022-11-02T05:25:36.882Z,11
2022-11-02T05:30:48.637Z,10
2022-11-02T05:36:00.604Z,11
2022-11-02T05:41:12.453Z,10
2022-11-02T05:46:24.327Z,10
2022-11-02T05:51:36.389Z,10
2022-11-02T05:56:48.432Z,10
2022-11-02T06:02:00.617Z,10
2022-11-02T06:07:12.636Z,10
2022-11-02T06:12:24.453Z,10
2022-11-02T06:17:36.579Z,10
2022-11-02T06:22:48.508Z,10
2022-11-02T06:28:00.681Z,11
2022-11-02T06:33:14.027Z,11
2022-11-02T06:38:25.931Z,11
2022-11-02T06:43:37.834Z,10
2022-11-02T06:48:49.824Z,11
2022-11-02T06:54:09.303Z,11
2022-11-02T06:59:20.196Z,11
2022-11-02T07:04:32.141Z,12
2022-11-02T07:09:44.090Z,12
2022-11-02T07:14:56.226Z,12
2022-11-02T07:20:08.312Z,12
2022-11-02T07:25:20.320Z,12
2022-11-02T07:30:32.546Z,13
2022-11-02T07:35:44.760Z,13
2022-11-02T07:40:56.763Z,13
2022-11-02T07:46:08.643Z,13
2022-11-02T07:51:20.420Z,13
2022-11-02T07:56:32.452Z,13
2022-11-02T08:01:45.126Z,13
2022-11-02T08:06:58.061Z,14
2022-11-02T08:12:10.052Z,14
2022-11-02T08:17:22.367Z,14
2022-11-02T08:22:34.532Z,14
2022-11-02T08:27:46.892Z,14
2022-11-02T08:32:59.029Z,14
2022-11-02T08:38:11.071Z,15
2022-11-02T08:43:23.532Z,15
2022-11-02T08:48:35.786Z,16
2022-11-02T08:53:52.456Z,16
2022-11-02T08:59:04.281Z,16
2022-11-02T09:04:16.489Z,17
2022-11-02T09:09:28.746Z,17
2022-11-02T09:14:41.362Z,17
2022-11-02T09:19:53.956Z,18
2022-11-02T09:25:06.322Z,18
2022-11-02T09:30:18.801Z,18
2022-11-02T09:35:31.418Z,18
2022-11-02T09:40:44.043Z,18
2022-11-02T09:45:56.362Z,18
2022-11-02T09:51:08.617Z,19
2022-11-02T09:56:20.733Z,19
2022-11-02T10:01:33.282Z,19
2022-11-02T10:06:45.778Z,19
2022-11-02T10:11:58.112Z,20
2022-11-02T10:17:10.683Z,20
2022-11-02T10:22:23.146Z,20
2022-11-02T10:27:35.481Z,20
2022-11-02T10:32:48.250Z,20
2022-11-02T10:38:00.795Z,20
2022-11-02T10:43:14.057Z,20
2022-11-02T10:48:26.612Z,21
2022-11-02T10:53:43.444Z,21
2022-11-02T10:58:58.138Z,22
2022-11-02T11:04:11.339Z,22
2022-11-02T11:09:25.622Z,24
2022-11-02T11:20:51.657Z,28
2022-11-02T11:26:04.772Z,29
2022-11-02T11:31:18.317Z,30
2022-11-02T11:41:42.422Z,31
2022-11-02T11:46:55.329Z,30
2022-11-02T11:52:08.568Z,31
2022-11-02T12:12:47.752Z,25
2022-11-02T12:18:00.177Z,26
2022-11-02T12:23:14.773Z,29
2022-11-02T12:28:29.851Z,30
2022-11-02T12:33:43.606Z,31
2022-11-02T12:38:56.895Z,31
2022-11-02T12:54:32.487Z,30
2022-11-02T12:59:54.961Z,31
2022-11-02T13:05:07.495Z,31
2022-11-02T13:10:20.752Z,31
2022-11-02T13:15:33.206Z,31
2022-11-02T13:25:56.714Z,30
2022-11-02T13:36:23.285Z,29
2022-11-02T13:46:45.962Z,28
2022-11-02T14:12:37.821Z,23
2022-11-02T14:17:49.816Z,23
2022-11-02T14:23:01.826Z,22
2022-11-02T14:28:14.611Z,22
2022-11-02T14:33:26.848Z,22
2022-11-02T14:38:39.056Z,22
2022-11-02T14:43:51.391Z,22
2022-11-02T14:49:03.771Z,22
2022-11-02T15:04:37.162Z,22
2022-11-02T15:09:49.617Z,22
2022-11-02T15:15:01.620Z,22
2022-11-02T15:20:13.901Z,21
2022-11-02T15:25:26.444Z,21
2022-11-02T15:30:38.567Z,21
2022-11-02T15:35:50.901Z,21
2022-11-02T15:41:06.956Z,21
2022-11-02T15:46:20.536Z,21
2022-11-02T15:51:32.615Z,20
2022-11-02T16:01:54.797Z,20
2022-11-02T16:07:07.021Z,20
2022-11-02T16:17:28.976Z,19
2022-11-02T16:22:41.126Z,19
2022-11-02T16:27:53.095Z,19
2022-11-02T16:33:05.037Z,19
2022-11-02T16:38:17.159Z,19
2022-11-02T16:43:29.106Z,19
2022-11-02T16:48:41.047Z,18
2022-11-02T16:53:53.190Z,18
2022-11-02T16:59:05.186Z,18
2022-11-02T17:04:17.137Z,18
2022-11-02T17:09:29.340Z,18
2022-11-02T17:14:41.647Z,18
2022-11-02T17:19:53.605Z,18
2022-11-02T17:25:05.860Z,18
2022-11-02T17:30:18.007Z,18
2022-11-02T17:35:30.049Z,18
2022-11-02T17:40:42.029Z,18
2022-11-02T17:45:53.946Z,18
2022-11-02T17:51:06.077Z,18
2022-11-02T17:56:18.199Z,17
2022-11-02T18:01:30.868Z,18
2022-11-02T18:06:43.025Z,18
2022-11-02T18:11:55.175Z,18
2022-11-02T18:17:07.326Z,18
2022-11-02T18:22:19.527Z,18
2022-11-02T18:27:31.853Z,18
2022-11-02T18:32:43.890Z,18
2022-11-02T18:37:56.092Z,18
2022-11-02T18:43:10.018Z,18
2022-11-02T18:48:21.842Z,18
2022-11-02T18:53:33.910Z,18
2022-11-02T18:58:46.215Z,17
2022-11-02T19:03:58.341Z,17
2022-11-02T19:09:10.413Z,17
2022-11-02T19:14:22.572Z,17
2022-11-02T19:19:34.763Z,17
2022-11-02T19:24:46.701Z,17
2022-11-02T19:29:58.877Z,17
2022-11-02T19:35:11.200Z,17
2022-11-02T19:40:22.989Z,17
2022-11-02T19:45:35.305Z,17
2022-11-02T19:50:47.329Z,17
2022-11-02T19:55:59.558Z,17
2022-11-02T20:01:12.140Z,17
2022-11-02T20:06:24.469Z,17
2022-11-02T20:11:36.890Z,17
2022-11-02T20:17:31.739Z,17
2022-11-02T20:23:22.490Z,16
2022-11-02T20:28:34.250Z,17
2022-11-02T20:33:46.814Z,17
2022-11-02T20:38:58.830Z,16
2022-11-02T20:44:11.081Z,17
2022-11-02T20:49:51.688Z,17
2022-11-02T20:54:59.729Z,17
2022-11-02T21:00:11.800Z,17
2022-11-02T21:05:24.151Z,16
2022-11-02T21:10:36.255Z,17
2022-11-02T21:15:48.642Z,17
2022-11-02T21:21:01.095Z,17
2022-11-02T21:26:13.319Z,16
2022-11-02T21:31:25.640Z,17
2022-11-02T21:36:37.754Z,17
2022-11-02T21:41:49.880Z,17
2022-11-02T21:47:01.939Z,17
2022-11-02T21:52:14.125Z,17
2022-11-02T21:57:27.190Z,17
2022-11-02T22:02:39.398Z,17
2022-11-02T22:07:51.553Z,17
2022-11-02T22:13:05.138Z,17
2022-11-02T22:18:17.682Z,17
2022-11-02T22:23:29.723Z,17
2022-11-02T22:28:42.370Z,16
2022-11-02T22:33:54.976Z,16
2022-11-02T22:39:07.610Z,16
2022-11-02T22:44:20.445Z,16
2022-11-02T22:49:33.235Z,16
2022-11-02T22:54:45.501Z,15
2022-11-02T22:59:57.626Z,16
2022-11-02T23:05:09.794Z,16
2022-11-02T23:10:21.919Z,16
2022-11-02T23:15:34.675Z,16
2022-11-02T23:20:47.253Z,15
2022-11-02T23:25:59.349Z,15
2022-11-02T23:31:12.209Z,15
2022-11-02T23:41:34.765Z,15
2022-11-02T23:46:46.759Z,15
2022-11-02T23:51:58.819Z,15
2022-11-02T23:57:11.247Z,15
